Time;durP1;ratioP1;P1;durP2;ratioP2;P2;SDS_P1;SDS_P2;PMS_P1;PMS_P2;Temp;Humidity;BMP_temperature;BMP_pressure;BME280_temperature;BME280_humidity;BME280_pressure;Samples;Min_cycle;Max_cycle;Signal;HPM_P1;HPM_P2
2022/10/03 05:59:24;;;;;;;5.47;2.20;;;;;;;;;;10510395;28;20419;-85
2022/10/03 06:04:42;;;;;;;5.78;2.45;;;;;;;;;;10491051;28;20029;-84
2022/10/03 06:10:20;;;;;;;4.65;2.40;;;;;;;;;;10492236;28;20025;-83
2022/10/03 06:15:24;;;;;;;5.95;2.70;;;;;;;;;;10477854;28;20112;-85
2022/10/03 06:20:49;;;;;;;4.25;2.40;;;;;;;;;;10492794;28;20055;-85
2022/10/03 06:25:59;;;;;;;5.03;2.40;;;;;;;;;;10489941;28;20021;-84
2022/10/03 06:31:15;;;;;;;4.20;2.42;;;;;;;;;;10508187;28;20036;-84
2022/10/03 06:36:35;;;;;;;3.60;2.10;;;;;;;;;;10487919;28;20029;-84
2022/10/03 06:41:55;;;;;;;4.53;2.50;;;;;;;;;;10487266;28;20048;-84
2022/10/03 06:46:56;;;;;;;6.13;3.17;;;;;;;;;;10487931;28;20090;-84
2022/10/03 06:52:17;;;;;;;5.35;2.60;;;;;;;;;;10514839;28;20047;-84
2022/10/03 06:57:18;;;;;;;6.37;3.17;;;;;;;;;;10523441;28;20029;-84
2022/10/03 07:02:25;;;;;;;5.78;2.92;;;;;;;;;;10522570;28;20021;-84
2022/10/03 07:07:55;;;;;;;5.55;2.55;;;;;;;;;;10486255;28;20025;-84
2022/10/03 07:13:05;;;;;;;6.30;3.55;;;;;;;;;;10465462;28;20025;-84
2022/10/03 07:18:24;;;;;;;3.42;2.50;;;;;;;;;;10473670;28;20067;-83
2022/10/03 07:23:25;;;;;;;6.35;3.33;;;;;;;;;;10477019;28;20028;-83
2022/10/03 07:28:47;;;;;;;6.15;3.22;;;;;;;;;;10493502;28;20032;-83
2022/10/03 07:33:57;;;;;;;4.80;2.97;;;;;;;;;;10429099;28;20044;-83
2022/10/03 07:39:05;;;;;;;6.88;3.15;;;;;;;;;;10478302;28;20106;-82
2022/10/03 07:44:14;;;;;;;7.00;3.38;;;;;;;;;;10475688;28;20021;-82
2022/10/03 07:49:36;;;;;;;11.52;4.80;;;;;;;;;;10474984;28;20112;-83
2022/10/03 07:54:37;;;;;;;10.90;5.70;;;;;;;;;;10474857;28;20383;-81
2022/10/03 07:59:44;;;;;;;5.38;2.72;;;;;;;;;;10476042;28;20061;-82
2022/10/03 08:04:56;;;;;;;9.65;4.57;;;;;;;;;;10474616;28;20044;-83
2022/10/03 08:10:10;;;;;;;5.25;2.95;;;;;;;;;;10473314;28;20032;-82
2022/10/03 08:15:20;;;;;;;6.90;3.50;;;;;;;;;;10473741;28;20025;-82
2022/10/03 08:20:27;;;;;;;7.67;3.47;;;;;;;;;;10470993;28;20088;-82
2022/10/03 08:25:37;;;;;;;8.77;4.93;;;;;;;;;;10473050;28;20296;-82
2022/10/03 08:30:51;;;;;;;5.93;3.22;;;;;;;;;;10473423;28;20051;-82
2022/10/03 08:35:58;;;;;;;4.88;3.13;;;;;;;;;;10473286;28;20025;-82
2022/10/03 08:41:13;;;;;;;5.07;2.58;;;;;;;;;;10472351;28;20367;-82
2022/10/03 08:46:14;;;;;;;9.77;3.75;;;;;;;;;;10488478;28;20033;-82
2022/10/03 08:51:34;;;;;;;6.20;3.00;;;;;;;;;;10471029;28;20021;-82
2022/10/03 08:56:46;;;;;;;6.30;3.43;;;;;;;;;;10470393;28;20037;-82
2022/10/03 09:01:50;;;;;;;11.20;5.53;;;;;;;;;;10471641;28;20033;-82
2022/10/03 09:06:51;;;;;;;7.43;3.15;;;;;;;;;;10469556;28;20025;-82
2022/10/03 09:12:11;;;;;;;4.47;2.80;;;;;;;;;;10471110;28;20021;-83
2022/10/03 09:17:30;;;;;;;11.25;5.35;;;;;;;;;;10470801;28;20013;-82
2022/10/03 09:22:35;;;;;;;8.83;4.10;;;;;;;;;;10468651;28;20067;-82
2022/10/03 09:27:46;;;;;;;7.32;3.13;;;;;;;;;;10472149;28;20025;-83
2022/10/03 09:33:03;;;;;;;5.93;3.47;;;;;;;;;;10470394;28;20009;-82
2022/10/03 09:38:20;;;;;;;9.73;4.40;;;;;;;;;;10469429;28;20036;-81
2022/10/03 09:43:21;;;;;;;9.40;4.88;;;;;;;;;;10467733;28;20025;-83
2022/10/03 09:48:25;;;;;;;8.40;3.65;;;;;;;;;;10467200;28;20039;-82
2022/10/03 09:53:29;;;;;;;7.97;3.22;;;;;;;;;;10470897;28;20025;-83
2022/10/03 09:58:34;;;;;;;5.47;2.65;;;;;;;;;;10471407;28;20029;-83
2022/10/03 10:03:55;;;;;;;7.63;3.28;;;;;;;;;;10469953;28;20029;-82
2022/10/03 10:09:02;;;;;;;4.03;2.33;;;;;;;;;;10467660;28;20037;-83
2022/10/03 10:14:09;;;;;;;11.80;4.82;;;;;;;;;;10468663;28;20036;-82
2022/10/03 10:19:14;;;;;;;8.20;3.60;;;;;;;;;;10469136;28;20093;-83
2022/10/03 10:24:18;;;;;;;8.23;2.08;;;;;;;;;;10470651;28;20040;-83
2022/10/03 10:29:32;;;;;;;5.05;1.67;;;;;;;;;;10487821;28;20029;-82
2022/10/03 10:34:39;;;;;;;8.15;1.52;;;;;;;;;;10470809;28;20040;-82
2022/10/03 10:39:53;;;;;;;3.50;1.45;;;;;;;;;;10469094;28;20359;-83
2022/10/03 10:44:57;;;;;;;6.75;1.58;;;;;;;;;;10476167;28;20024;-82
2022/10/03 10:50:18;;;;;;;5.55;1.20;;;;;;;;;;10477676;28;20021;-83
2022/10/03 10:55:39;;;;;;;4.15;1.52;;;;;;;;;;10476978;28;20445;-82
2022/10/03 11:00:59;;;;;;;3.53;1.33;;;;;;;;;;10476959;28;20033;-83
2022/10/03 11:06:33;;;;;;;4.30;1.08;;;;;;;;;;10475196;28;20043;-82
2022/10/03 11:11:34;;;;;;;4.07;1.10;;;;;;;;;;10422016;28;20029;-82
2022/10/03 11:16:53;;;;;;;4.40;1.48;;;;;;;;;;10474516;28;20048;-82
2022/10/03 11:22:09;;;;;;;7.32;3.33;;;;;;;;;;10473947;28;20032;-83
2022/10/03 11:27:20;;;;;;;4.00;1.20;;;;;;;;;;10475219;28;20043;-83
2022/10/03 11:32:39;;;;;;;6.15;1.60;;;;;;;;;;10473467;28;20079;-82
2022/10/03 11:37:47;;;;;;;4.70;1.15;;;;;;;;;;10473388;28;20035;-83
2022/10/03 11:42:57;;;;;;;3.85;1.13;;;;;;;;;;10473566;28;20048;-82
2022/10/03 11:48:25;;;;;;;4.78;1.45;;;;;;;;;;10491192;28;20037;-83
2022/10/03 11:53:41;;;;;;;4.43;1.08;;;;;;;;;;10436129;28;20028;-83
2022/10/03 11:58:55;;;;;;;4.32;1.13;;;;;;;;;;10472148;28;20041;-83
2022/10/03 12:04:03;;;;;;;3.10;1.00;;;;;;;;;;10473017;28;20024;-83
2022/10/03 12:09:10;;;;;;;3.92;1.08;;;;;;;;;;10473378;28;20025;-83
2022/10/03 12:14:40;;;;;;;3.55;1.20;;;;;;;;;;10469871;28;20025;-83
2022/10/03 12:20:04;;;;;;;6.68;1.45;;;;;;;;;;10450548;28;20035;-83
2022/10/03 12:25:18;;;;;;;5.45;1.15;;;;;;;;;;10469255;28;20036;-83
2022/10/03 12:30:22;;;;;;;4.72;1.20;;;;;;;;;;10470187;28;20028;-82
2022/10/03 12:35:23;;;;;;;3.55;0.90;;;;;;;;;;10472420;28;20033;-83
2022/10/03 12:40:37;;;;;;;4.30;1.10;;;;;;;;;;10470744;28;20053;-83
2022/10/03 12:45:38;;;;;;;4.40;1.50;;;;;;;;;;10472252;28;20027;-83
2022/10/03 12:50:42;;;;;;;5.35;1.25;;;;;;;;;;10468714;28;20021;-83
2022/10/03 12:56:01;;;;;;;3.53;1.30;;;;;;;;;;10467096;28;20041;-83
2022/10/03 13:01:25;;;;;;;5.22;2.22;;;;;;;;;;10470455;28;20029;-83
2022/10/03 13:06:48;;;;;;;4.28;1.15;;;;;;;;;;10468810;28;20029;-82
2022/10/03 13:11:49;;;;;;;5.75;2.70;;;;;;;;;;10470052;28;20020;-82
2022/10/03 13:17:12;;;;;;;4.65;1.25;;;;;;;;;;10485912;22;20037;-85
2022/10/03 13:28:25;;;;;;;3.63;1.25;;;;;;;;;;10463789;28;20397;-84
2022/10/03 13:34:06;;;;;;;4.00;1.00;;;;;;;;;;10338555;28;20050;-84
2022/10/03 13:39:24;;;;;;;6.13;1.10;;;;;;;;;;10321682;28;20019;-85
2022/10/03 13:45:03;;;;;;;3.70;1.10;;;;;;;;;;10450981;28;20033;-85
2022/10/03 13:50:57;;;;;;;4.93;1.38;;;;;;;;;;10428792;28;20099;-85
2022/10/03 13:56:23;;;;;;;5.65;1.15;;;;;;;;;;10420199;28;20026;-85
2022/10/03 14:01:49;;;;;;;5.45;1.60;;;;;;;;;;10459955;28;20033;-84
2022/10/03 14:07:54;;;;;;;4.75;1.23;;;;;;;;;;10437428;28;20017;-84
2022/10/03 14:13:20;;;;;;;3.55;1.10;;;;;;;;;;10461233;28;20475;-84
2022/10/03 14:18:33;;;;;;;2.83;0.90;;;;;;;;;;10466444;28;20040;-85
2022/10/03 14:23:57;;;;;;;3.45;0.90;;;;;;;;;;10470411;28;20346;-84
2022/10/03 14:29:22;;;;;;;3.70;1.33;;;;;;;;;;10473934;28;20040;-85
2022/10/03 14:34:57;;;;;;;3.95;1.10;;;;;;;;;;10454638;28;20491;-85
2022/10/03 14:40:26;;;;;;;3.17;0.88;;;;;;;;;;10473979;28;20020;-85
2022/10/03 14:45:53;;;;;;;3.97;1.00;;;;;;;;;;10480628;28;20499;-86
2022/10/03 14:51:28;;;;;;;3.47;1.15;;;;;;;;;;10459041;28;20055;-85
2022/10/03 14:56:33;;;;;;;4.03;1.10;;;;;;;;;;10478620;28;20025;-85
2022/10/03 15:01:34;;;;;;;3.38;0.90;;;;;;;;;;10472779;28;20115;-84
2022/10/03 15:06:49;;;;;;;3.67;1.10;;;;;;;;;;10473756;28;20116;-84
2022/10/03 15:11:53;;;;;;;4.00;1.10;;;;;;;;;;10481953;28;20017;-85
2022/10/03 15:16:55;;;;;;;2.20;0.80;;;;;;;;;;10496149;28;20043;-84
2022/10/03 15:22:02;;;;;;;3.63;0.98;;;;;;;;;;10510722;28;20037;-85
2022/10/03 15:27:18;;;;;;;4.97;1.60;;;;;;;;;;10508897;28;20057;-85
2022/10/03 15:32:26;;;;;;;3.83;1.10;;;;;;;;;;10490894;28;20447;-85
2022/10/03 15:37:34;;;;;;;4.20;1.20;;;;;;;;;;10469533;28;20044;-85
2022/10/03 15:42:44;;;;;;;3.45;1.20;;;;;;;;;;10468802;28;20025;-86
2022/10/03 15:47:46;;;;;;;3.72;1.10;;;;;;;;;;10467609;28;20355;-85
2022/10/03 15:52:51;;;;;;;3.50;1.30;;;;;;;;;;10465942;28;20124;-86
2022/10/03 15:58:00;;;;;;;3.78;1.25;;;;;;;;;;10467930;28;20470;-85
2022/10/03 16:03:07;;;;;;;6.15;1.73;;;;;;;;;;10467573;28;20120;-86
2022/10/03 16:08:17;;;;;;;2.95;1.10;;;;;;;;;;10465865;28;20102;-85
2022/10/03 16:13:24;;;;;;;2.80;1.00;;;;;;;;;;10464847;28;20028;-84
2022/10/03 16:18:45;;;;;;;4.93;2.20;;;;;;;;;;10464468;28;20045;-84
2022/10/03 16:23:47;;;;;;;6.38;1.42;;;;;;;;;;10464576;28;20116;-84
2022/10/03 16:28:55;;;;;;;3.75;1.50;;;;;;;;;;10464864;28;20091;-84
2022/10/03 16:34:03;;;;;;;2.50;1.00;;;;;;;;;;10464062;28;20116;-84
2022/10/03 16:39:05;;;;;;;2.05;1.10;;;;;;;;;;10461078;28;20025;-85
2022/10/03 16:44:17;;;;;;;3.00;1.10;;;;;;;;;;10463039;28;20112;-85
2022/10/03 16:54:45;;;;;;;3.65;1.25;;;;;;;;;;10468433;28;20033;-86
2022/10/03 16:59:50;;;;;;;2.33;1.10;;;;;;;;;;10461868;28;20458;-85
2022/10/03 17:04:53;;;;;;;4.05;1.23;;;;;;;;;;10462886;28;20028;-84
2022/10/03 17:09:59;;;;;;;2.33;0.98;;;;;;;;;;10462500;28;20067;-84
2022/10/03 17:15:08;;;;;;;2.40;1.30;;;;;;;;;;10462530;28;20402;-84
2022/10/03 17:20:18;;;;;;;2.13;1.20;;;;;;;;;;10462375;28;20077;-83
2022/10/03 17:25:39;;;;;;;2.90;1.20;;;;;;;;;;10468432;28;20391;-84
2022/10/03 17:30:43;;;;;;;1.52;0.85;;;;;;;;;;10464822;28;20017;-84
2022/10/03 17:35:47;;;;;;;2.30;1.13;;;;;;;;;;10460307;28;20500;-84
2022/10/03 17:40:50;;;;;;;2.40;1.40;;;;;;;;;;10460654;28;20068;-84
2022/10/03 17:45:58;;;;;;;2.75;1.40;;;;;;;;;;10460654;28;20033;-84
2022/10/03 17:51:18;;;;;;;4.07;2.05;;;;;;;;;;10461163;28;20021;-84
2022/10/03 17:56:21;;;;;;;3.00;1.70;;;;;;;;;;10461408;28;20032;-84
2022/10/03 18:01:44;;;;;;;3.00;1.60;;;;;;;;;;10462217;28;20082;-84
2022/10/03 18:06:51;;;;;;;3.08;1.67;;;;;;;;;;10461407;28;20029;-84
2022/10/03 18:11:54;;;;;;;3.03;1.40;;;;;;;;;;10461489;28;20554;-85
2022/10/03 18:17:05;;;;;;;2.60;1.80;;;;;;;;;;10462666;28;20087;-84
2022/10/03 18:22:20;;;;;;;3.88;2.42;;;;;;;;;;10465319;28;20368;-84
2022/10/03 18:27:41;;;;;;;4.28;2.30;;;;;;;;;;10461319;28;20032;-83
2022/10/03 18:32:44;;;;;;;7.88;3.65;;;;;;;;;;10460998;28;20021;-84
2022/10/03 18:37:45;;;;;;;6.07;4.10;;;;;;;;;;10460058;28;20048;-84
2022/10/03 18:42:49;;;;;;;9.68;6.40;;;;;;;;;;10465174;28;20029;-83
2022/10/03 18:47:52;;;;;;;3.35;2.10;;;;;;;;;;10458964;28;20028;-83
2022/10/03 18:52:56;;;;;;;4.78;2.78;;;;;;;;;;10458859;28;20474;-83
2022/10/03 18:58:01;;;;;;;3.28;1.90;;;;;;;;;;10460398;28;20058;-83
2022/10/03 19:03:06;;;;;;;2.70;1.73;;;;;;;;;;10462162;28;20029;-84
2022/10/03 19:08:10;;;;;;;3.13;1.92;;;;;;;;;;10467092;28;20031;-83
2022/10/03 19:13:24;;;;;;;4.35;2.88;;;;;;;;;;10465832;28;20118;-83
2022/10/03 19:18:28;;;;;;;4.55;2.72;;;;;;;;;;10472182;28;20037;-83
2022/10/03 19:23:36;;;;;;;4.55;2.70;;;;;;;;;;10469584;28;20029;-83
